Time;durP1;ratioP1;P1;durP2;ratioP2;P2;SDS_P1;SDS_P2;PMS_P1;PMS_P2;Temp;Humidity;BMP_temperature;BMP_pressure;BME280_temperature;BME280_humidity;BME280_pressure;Samples;Min_cycle;Max_cycle;Signal;HPM_P1;HPM_P2
2022/07/27 00:00:14;;;;;;;6.03;1.67;;;;;;;15.98;64.55;102003.88;5016427;28;20039;-77
2022/07/27 00:02:40;;;;;;;3.83;0.57;;;;;;;15.99;64.77;102005.56;5014240;28;20160;-77
2022/07/27 00:05:05;;;;;;;2.33;0.70;;;;;;;15.98;64.35;102003.00;5016170;28;20160;-77
2022/07/27 00:07:31;;;;;;;3.35;0.63;;;;;;;15.96;64.97;102010.53;5015565;28;20478;-78
2022/07/27 00:09:56;;;;;;;3.45;0.70;;;;;;;15.94;64.68;102009.88;5016275;28;20029;-77
2022/07/27 00:12:21;;;;;;;2.67;0.50;;;;;;;15.90;64.48;102006.66;5016837;28;20028;-78
2022/07/27 00:14:47;;;;;;;6.07;0.90;;;;;;;15.89;64.49;102005.00;5015017;28;20080;-75
2022/07/27 00:17:12;;;;;;;4.15;0.70;;;;;;;15.88;64.47;102002.50;5014853;28;20153;-77
2022/07/27 00:19:38;;;;;;;2.08;0.75;;;;;;;15.87;64.63;102001.63;5016866;28;20034;-78
2022/07/27 00:22:03;;;;;;;8.00;0.80;;;;;;;15.88;64.60;102007.91;5016899;28;20053;-76
2022/07/27 00:24:28;;;;;;;3.95;0.82;;;;;;;15.90;64.47;102000.41;5016419;28;20050;-76
2022/07/27 00:26:54;;;;;;;4.32;1.10;;;;;;;15.86;65.09;101999.94;5046946;28;20124;-78
2022/07/27 00:29:19;;;;;;;1.95;0.50;;;;;;;15.86;65.10;101996.41;5014204;28;20073;-76
2022/07/27 00:31:44;;;;;;;3.60;0.70;;;;;;;15.88;64.76;101992.47;5014398;28;20026;-78
2022/07/27 00:34:10;;;;;;;3.63;0.55;;;;;;;15.91;64.22;101997.50;5015058;28;20038;-77
2022/07/27 00:36:35;;;;;;;1.75;0.82;;;;;;;15.87;64.19;102001.63;5015822;28;20037;-77
2022/07/27 00:39:00;;;;;;;10.23;1.70;;;;;;;15.88;64.64;101999.78;5015912;28;20030;-77
2022/07/27 00:41:26;;;;;;;3.10;0.90;;;;;;;15.81;64.85;101996.97;5017305;28;20025;-78
2022/07/27 00:43:56;;;;;;;6.10;0.80;;;;;;;15.80;65.03;102000.72;5016251;28;20053;-76
2022/07/27 00:46:22;;;;;;;3.13;0.73;;;;;;;15.81;65.11;101996.97;5016226;28;20164;-77
2022/07/27 00:48:48;;;;;;;6.68;1.00;;;;;;;15.83;65.43;101997.63;5016418;28;20041;-76
2022/07/27 00:51:15;;;;;;;3.10;0.60;;;;;;;15.85;65.39;101992.84;5014718;28;20025;-77
2022/07/27 00:53:41;;;;;;;2.25;0.75;;;;;;;15.89;65.55;102002.28;5015110;28;20050;-76
2022/07/27 00:56:07;;;;;;;13.73;2.72;;;;;;;15.91;65.13;101992.09;5016304;28;20087;-76
2022/07/27 00:58:32;;;;;;;6.28;1.23;;;;;;;15.92;65.10;101993.75;5017143;28;20069;-77
2022/07/27 01:00:58;;;;;;;6.13;1.08;;;;;;;15.88;65.50;101997.06;5030904;28;20068;-76
2022/07/27 01:03:24;;;;;;;3.75;0.73;;;;;;;15.85;65.88;101992.84;5014264;28;20037;-76
2022/07/27 01:05:49;;;;;;;4.90;0.93;;;;;;;15.83;65.37;101991.34;5018524;28;20061;-76
2022/07/27 01:08:15;;;;;;;8.05;0.82;;;;;;;15.77;65.09;101990.19;5018148;28;20367;-77
2022/07/27 01:10:41;;;;;;;5.32;0.70;;;;;;;15.71;65.14;101993.69;5018358;28;20048;-76
2022/07/27 01:13:07;;;;;;;4.00;0.60;;;;;;;15.69;64.91;101995.72;5019368;28;20096;-78
2022/07/27 01:15:32;;;;;;;7.78;1.13;;;;;;;15.68;64.56;101991.31;5018221;28;20030;-76
2022/07/27 01:17:58;;;;;;;5.10;0.90;;;;;;;15.63;64.74;101988.31;5018218;28;20034;-77
2022/07/27 01:20:23;;;;;;;3.97;0.60;;;;;;;15.59;64.07;101986.00;5017593;28;20030;-77
2022/07/27 01:22:49;;;;;;;4.97;0.73;;;;;;;15.58;63.68;101980.72;5022025;28;20036;-77
2022/07/27 01:25:15;;;;;;;5.07;0.75;;;;;;;15.55;63.43;101981.13;5018022;28;20105;-76
2022/07/27 01:27:40;;;;;;;4.68;0.98;;;;;;;15.57;62.13;101981.78;5020216;28;20030;-76
2022/07/27 01:30:25;;;;;;;3.50;0.57;;;;;;;15.54;62.05;101980.28;5019330;28;20449;-76
2022/07/27 01:32:51;;;;;;;4.18;0.70;;;;;;;15.54;61.75;101991.13;5019676;28;20030;-77
2022/07/27 01:35:16;;;;;;;9.38;0.70;;;;;;;15.53;61.10;101988.59;5021488;28;20026;-76
2022/07/27 01:37:42;;;;;;;1.67;0.52;;;;;;;15.51;61.37;101991.50;5049739;28;20493;-77
2022/07/27 01:40:07;;;;;;;3.20;0.70;;;;;;;15.49;61.29;101987.28;5016916;28;20038;-77
2022/07/27 01:42:33;;;;;;;6.32;0.68;;;;;;;15.47;60.55;101984.75;5018407;28;20022;-77
2022/07/27 01:44:58;;;;;;;7.47;0.63;;;;;;;15.47;60.58;101990.19;5018291;28;20033;-75
2022/07/27 01:47:25;;;;;;;4.43;0.77;;;;;;;15.48;60.42;101983.75;5018007;28;20034;-77
2022/07/27 01:49:51;;;;;;;3.00;0.73;;;;;;;15.45;60.77;101985.97;5016098;28;20026;-76
2022/07/27 01:52:16;;;;;;;4.18;0.60;;;;;;;15.44;60.80;101974.28;5017752;28;20040;-78
2022/07/27 01:54:42;;;;;;;4.72;0.80;;;;;;;15.43;61.08;101983.47;5023310;28;20044;-77
2022/07/27 01:57:07;;;;;;;3.95;0.63;;;;;;;15.43;61.35;101978.03;5023191;28;20124;-76
2022/07/27 01:59:32;;;;;;;5.95;0.70;;;;;;;15.41;61.53;101980.09;5024478;28;20062;-78
2022/07/27 02:01:57;;;;;;;1.15;0.57;;;;;;;15.40;61.71;101975.66;5023995;28;20057;-78
2022/07/27 02:04:23;;;;;;;2.20;0.45;;;;;;;15.39;61.82;101971.28;5020714;28;20022;-78
2022/07/27 02:06:48;;;;;;;9.52;0.55;;;;;;;15.34;61.93;101974.56;5020375;28;20034;-77
2022/07/27 02:09:14;;;;;;;9.02;0.75;;;;;;;15.29;62.67;101976.13;5017880;28;20030;-77
2022/07/27 02:14:23;;;;;;;1.67;0.73;;;;;;;15.26;62.71;101968.38;5016796;28;20115;-77
2022/07/27 02:16:48;;;;;;;2.90;0.63;;;;;;;15.24;62.36;101970.44;5017141;28;20137;-76
2022/07/27 02:19:14;;;;;;;5.65;0.80;;;;;;;15.22;62.36;101975.19;5017113;28;20054;-75
2022/07/27 02:21:39;;;;;;;5.32;0.70;;;;;;;15.22;62.91;101973.34;5017573;28;20085;-78
2022/07/27 02:24:05;;;;;;;5.90;1.00;;;;;;;15.23;62.90;101972.31;5017671;28;20389;-77
2022/07/27 02:26:30;;;;;;;3.30;0.70;;;;;;;15.24;62.95;101973.13;5017303;28;20030;-77
2022/07/27 02:28:56;;;;;;;3.70;0.55;;;;;;;15.22;63.28;101969.75;5018502;28;20052;-77
2022/07/27 02:31:21;;;;;;;3.30;0.60;;;;;;;15.24;63.57;101965.00;5017875;28;20022;-78
2022/07/27 02:33:47;;;;;;;4.95;0.80;;;;;;;15.20;63.96;101961.00;5076852;23;20058;-76
2022/07/27 02:36:12;;;;;;;10.68;0.82;;;;;;;15.19;64.16;101965.53;5003538;28;20097;-76
2022/07/27 02:38:37;;;;;;;8.20;0.90;;;;;;;15.21;64.18;101959.94;4997906;28;20033;-76
2022/07/27 02:41:03;;;;;;;4.57;0.80;;;;;;;15.19;64.25;101968.25;4992224;28;20042;-76
2022/07/27 02:43:28;;;;;;;6.20;0.80;;;;;;;15.18;64.43;101963.88;5012176;28;20065;-75
2022/07/27 02:45:53;;;;;;;5.80;0.70;;;;;;;15.17;64.87;101966.78;5012209;28;20308;-75
2022/07/27 02:48:19;;;;;;;3.13;0.60;;;;;;;15.21;64.95;101965.38;4995697;28;20034;-76
2022/07/27 02:50:44;;;;;;;12.38;1.27;;;;;;;15.25;64.77;101958.56;5012929;28;20030;-75
2022/07/27 02:53:09;;;;;;;4.32;0.80;;;;;;;15.29;64.56;101965.28;5014391;28;20160;-75
2022/07/27 02:55:35;;;;;;;8.10;1.20;;;;;;;15.30;64.56;101956.97;4979336;28;20419;-75
2022/07/27 02:58:00;;;;;;;4.20;0.70;;;;;;;15.34;64.81;101954.72;4979400;28;20026;-75
2022/07/27 03:00:26;;;;;;;1.33;0.43;;;;;;;15.40;64.64;101953.97;4995896;28;20025;-76
2022/07/27 03:02:51;;;;;;;6.15;0.88;;;;;;;15.46;64.42;101957.84;5013243;28;20022;-76
2022/07/27 03:05:16;;;;;;;3.45;0.82;;;;;;;15.51;64.56;101964.38;5012937;28;20116;-76
2022/07/27 03:07:42;;;;;;;4.25;0.75;;;;;;;15.55;64.48;101960.25;4994930;28;20029;-76
2022/07/27 03:10:07;;;;;;;2.58;0.93;;;;;;;15.59;64.29;101960.72;5011275;28;20514;-75
2022/07/27 03:12:33;;;;;;;2.70;0.80;;;;;;;15.66;64.19;101960.81;5012481;28;20480;-76
2022/07/27 03:14:58;;;;;;;7.43;0.80;;;;;;;15.67;63.70;101951.66;4995317;28;20446;-75
2022/07/27 03:17:23;;;;;;;6.32;1.10;;;;;;;15.69;63.74;101958.59;5012939;28;20404;-77
2022/07/27 03:19:49;;;;;;;4.38;0.75;;;;;;;15.72;63.47;101965.53;5012952;28;20026;-75
2022/07/27 03:22:15;;;;;;;2.95;0.75;;;;;;;15.76;63.32;101958.69;5012645;28;20117;-75
2022/07/27 03:24:40;;;;;;;6.10;0.77;;;;;;;15.77;63.12;101954.91;5012447;28;20144;-75
2022/07/27 03:27:05;;;;;;;5.90;0.82;;;;;;;15.79;63.17;101955.56;5011400;28;20026;-75
2022/07/27 03:29:31;;;;;;;3.20;0.73;;;;;;;15.80;62.74;101958.13;5012119;28;20033;-76
2022/07/27 03:31:56;;;;;;;4.65;0.90;;;;;;;15.83;62.64;101958.78;5012642;28;20030;-77
2022/07/27 03:34:21;;;;;;;7.72;1.25;;;;;;;15.85;62.44;101954.84;5011967;28;20113;-77
2022/07/27 03:36:47;;;;;;;7.22;0.90;;;;;;;15.84;62.26;101953.13;5012329;28;20029;-77
2022/07/27 03:39:12;;;;;;;2.42;0.60;;;;;;;15.88;62.22;101965.31;5011399;28;20113;-76
2022/07/27 03:41:38;;;;;;;6.97;0.80;;;;;;;15.85;62.36;101963.00;5011002;28;20021;-75
2022/07/27 03:44:03;;;;;;;3.25;0.63;;;;;;;15.87;62.53;101957.34;5011745;28;20032;-76
2022/07/27 03:46:29;;;;;;;4.38;0.65;;;;;;;15.90;62.34;101959.69;5010153;28;20478;-75
2022/07/27 03:48:55;;;;;;;4.15;0.52;;;;;;;15.88;61.82;101957.19;5012345;28;20026;-75
2022/07/27 03:51:21;;;;;;;4.38;0.80;;;;;;;15.87;61.89;101963.63;5013441;28;20022;-76
2022/07/27 03:53:47;;;;;;;3.13;0.75;;;;;;;15.86;61.80;101974.69;5013474;28;20117;-76
2022/07/27 03:56:12;;;;;;;3.67;1.00;;;;;;;15.85;62.27;101973.84;5012062;28;20061;-76
2022/07/27 03:58:37;;;;;;;3.42;0.80;;;;;;;15.84;62.27;101966.72;5011823;28;20046;-76
2022/07/27 04:01:03;;;;;;;3.95;0.70;;;;;;;15.88;62.30;101973.47;5012188;28;20030;-75
2022/07/27 04:03:28;;;;;;;3.65;0.95;;;;;;;15.86;62.01;101967.38;5011466;28;20038;-76
2022/07/27 04:05:53;;;;;;;3.45;0.70;;;;;;;15.87;62.10;101970.91;5010057;28;20022;-74
2022/07/27 04:08:20;;;;;;;3.45;0.93;;;;;;;15.87;62.56;101962.78;5009941;28;20076;-75
2022/07/27 04:10:46;;;;;;;4.20;0.95;;;;;;;15.92;62.48;101963.88;5009788;28;20339;-75
2022/07/27 04:13:11;;;;;;;3.83;0.90;;;;;;;15.91;62.67;101970.38;5009861;28;20065;-76
2022/07/27 04:15:37;;;;;;;4.57;0.80;;;;;;;15.96;63.11;101970.63;5011203;28;20026;-76
2022/07/27 04:18:02;;;;;;;6.47;0.82;;;;;;;15.98;62.85;101970.44;5011327;28;20444;-76
2022/07/27 04:20:28;;;;;;;6.45;0.88;;;;;;;15.99;62.87;101972.97;5011163;28;20026;-75
2022/07/27 04:22:54;;;;;;;2.35;0.63;;;;;;;16.06;62.66;101972.19;5010978;28;20472;-75
2022/07/27 04:25:20;;;;;;;3.78;0.90;;;;;;;16.13;62.29;101973.13;5009893;28;20080;-77
2022/07/27 04:27:45;;;;;;;1.75;0.70;;;;;;;16.17;62.24;101979.88;5010701;28;20026;-76
2022/07/27 04:30:11;;;;;;;9.23;1.00;;;;;;;16.15;62.44;101976.50;5010751;28;20030;-76
2022/07/27 04:32:36;;;;;;;10.65;1.60;;;;;;;16.17;63.08;101986.13;5009020;28;20099;-76
2022/07/27 04:35:02;;;;;;;5.82;0.90;;;;;;;16.17;63.52;101985.31;5010894;28;20552;-77
2022/07/27 04:37:27;;;;;;;6.85;1.20;;;;;;;16.20;64.33;101987.63;5010945;28;20029;-76
2022/07/27 04:39:56;;;;;;;5.38;0.98;;;;;;;16.20;64.67;101984.91;5010888;28;20026;-76
2022/07/27 04:42:22;;;;;;;4.40;1.10;;;;;;;16.15;64.59;101981.94;5014817;28;20160;-78
2022/07/27 04:44:47;;;;;;;6.40;1.27;;;;;;;16.16;64.07;101980.88;5015689;28;20049;-77
2022/07/27 04:47:13;;;;;;;4.40;0.73;;;;;;;16.10;62.81;101973.50;5015438;28;20034;-75
2022/07/27 04:49:38;;;;;;;3.25;0.70;;;;;;;16.05;62.17;101982.22;5015133;28;20084;-76
2022/07/27 04:52:04;;;;;;;6.88;1.13;;;;;;;16.03;62.37;101992.44;5014979;28;20084;-76
2022/07/27 04:54:29;;;;;;;9.32;1.25;;;;;;;15.93;63.23;101990.03;5015218;28;20022;-76
2022/07/27 04:56:54;;;;;;;6.93;0.90;;;;;;;15.94;63.63;101986.28;5014382;28;20026;-77
2022/07/27 04:59:20;;;;;;;3.63;0.88;;;;;;;15.97;63.54;101995.91;5013644;28;20060;-76
2022/07/27 05:01:45;;;;;;;8.25;1.23;;;;;;;16.00;63.30;101993.66;5015243;28;20060;-76
2022/07/27 05:04:10;;;;;;;3.03;0.98;;;;;;;16.04;63.38;101987.88;5014853;28;20018;-76
2022/07/27 05:06:36;;;;;;;4.15;1.00;;;;;;;16.05;63.96;101986.81;5014759;28;20037;-76
2022/07/27 05:09:01;;;;;;;3.35;1.10;;;;;;;16.10;63.94;101990.63;5014605;28;20030;-76
2022/07/27 05:11:27;;;;;;;5.32;1.27;;;;;;;16.11;64.23;101986.03;5013249;28;20454;-76
2022/07/27 05:13:52;;;;;;;7.72;1.17;;;;;;;16.12;64.35;101999.44;5014266;28;20099;-76
2022/07/27 05:16:18;;;;;;;3.75;0.80;;;;;;;16.15;64.38;101987.38;5014086;28;20018;-76
2022/07/27 05:18:44;;;;;;;8.23;1.25;;;;;;;16.19;64.13;101989.50;5014430;28;20106;-76
2022/07/27 05:21:10;;;;;;;6.00;1.25;;;;;;;16.24;64.16;101997.06;5014655;28;20396;-76
2022/07/27 05:23:35;;;;;;;5.57;1.30;;;;;;;16.28;63.49;102003.81;5012868;28;20018;-76
2022/07/27 05:26:01;;;;;;;3.78;0.95;;;;;;;16.28;63.12;102001.09;5015088;28;20446;-75
2022/07/27 05:28:26;;;;;;;3.47;1.20;;;;;;;16.31;62.57;102000.72;5014712;28;20421;-76
2022/07/27 05:30:52;;;;;;;3.92;1.10;;;;;;;16.33;62.73;102004.09;5014505;28;20474;-77
2022/07/27 05:33:17;;;;;;;6.82;1.13;;;;;;;16.36;63.96;102013.72;5013838;28;20073;-76
2022/07/27 05:35:43;;;;;;;5.57;1.20;;;;;;;16.33;65.33;102023.09;5013955;28;20022;-77
2022/07/27 05:38:08;;;;;;;5.57;0.88;;;;;;;16.40;65.88;102018.59;5012310;28;20033;-76
2022/07/27 05:40:33;;;;;;;5.60;1.33;;;;;;;16.39;67.57;102027.75;5012608;28;20049;-76
2022/07/27 05:42:59;;;;;;;7.50;1.52;;;;;;;16.23;68.58;102028.81;5013683;28;20025;-76
2022/07/27 05:45:25;;;;;;;12.45;1.52;;;;;;;16.15;69.99;102033.53;5013507;28;20033;-77
2022/07/27 05:47:51;;;;;;;4.28;1.00;;;;;;;16.09;69.83;102036.97;4996234;28;20037;-77
2022/07/27 05:50:16;;;;;;;6.22;1.15;;;;;;;15.97;69.17;102028.50;5013800;28;20084;-76
2022/07/27 05:52:43;;;;;;;7.10;1.40;;;;;;;15.87;69.04;102034.19;5012730;28;20030;-77
2022/07/27 05:55:09;;;;;;;5.03;1.40;;;;;;;15.80;69.43;102033.28;5013542;28;20385;-76
2022/07/27 05:57:34;;;;;;;7.43;1.40;;;;;;;15.77;69.23;102045.34;5013129;28;20485;-77
2022/07/27 06:00:00;;;;;;;3.08;1.08;;;;;;;15.74;70.55;102037.56;5013774;28;20056;-76
2022/07/27 06:02:26;;;;;;;7.43;1.05;;;;;;;15.75;71.05;102030.28;5013957;28;20453;-77
2022/07/27 06:04:53;;;;;;;6.30;1.20;;;;;;;15.68;70.85;102034.75;5013381;28;20402;-76
2022/07/27 06:10:02;;;;;;;3.47;0.80;;;;;;;15.68;70.32;102048.31;5013627;28;20474;-76
2022/07/27 06:12:28;;;;;;;3.38;1.00;;;;;;;15.70;70.39;102049.00;5013312;28;20119;-77
2022/07/27 06:14:53;;;;;;;8.20;1.25;;;;;;;15.74;70.95;102048.41;5013503;28;20025;-76
2022/07/27 06:17:18;;;;;;;3.83;1.00;;;;;;;15.76;71.74;102049.09;5013785;28;20030;-76
2022/07/27 06:19:44;;;;;;;5.47;1.10;;;;;;;15.72;70.92;102047.78;5013207;28;20021;-76
2022/07/27 06:22:09;;;;;;;5.60;1.42;;;;;;;15.72;70.57;102042.38;5013863;28;20097;-77
2022/07/27 06:24:34;;;;;;;6.93;0.90;;;;;;;15.77;70.66;102045.34;5012952;28;20034;-77
2022/07/27 06:27:00;;;;;;;3.83;1.15;;;;;;;15.78;70.17;102046.19;5013320;28;20091;-76
2022/07/27 06:29:25;;;;;;;6.88;1.25;;;;;;;15.83;69.92;102048.34;5013491;28;20029;-76
2022/07/27 06:31:51;;;;;;;6.40;1.48;;;;;;;15.91;70.01;102050.97;5013543;28;20021;-76
2022/07/27 06:34:16;;;;;;;6.03;1.05;;;;;;;15.98;69.57;102047.31;5012432;28;20045;-76
2022/07/27 06:36:43;;;;;;;5.90;1.00;;;;;;;16.13;68.69;102055.44;5012716;28;20033;-76
2022/07/27 06:39:10;;;;;;;7.15;1.15;;;;;;;16.25;68.18;102050.38;5011508;28;20033;-77
2022/07/27 06:41:35;;;;;;;6.15;1.10;;;;;;;16.36;68.05;102049.88;5012795;28;20497;-76
2022/07/27 06:44:00;;;;;;;9.90;1.48;;;;;;;16.40;68.27;102067.50;5013407;28;20056;-76
2022/07/27 06:46:26;;;;;;;5.60;1.30;;;;;;;16.47;67.65;102067.56;5012952;28;20185;-76
2022/07/27 06:48:52;;;;;;;7.40;1.33;;;;;;;16.64;67.74;102066.31;5014704;28;20122;-76
2022/07/27 06:51:17;;;;;;;6.72;1.20;;;;;;;16.84;66.98;102063.81;5015112;28;20026;-76
2022/07/27 06:53:43;;;;;;;4.82;1.48;;;;;;;17.01;65.83;102058.09;5015616;28;20413;-76
2022/07/27 06:56:09;;;;;;;4.85;1.10;;;;;;;17.15;64.28;102054.50;4996259;28;20022;-76
2022/07/27 06:58:36;;;;;;;5.60;1.48;;;;;;;17.29;63.06;102059.00;5012721;28;20030;-76
2022/07/27 07:01:02;;;;;;;8.65;1.15;;;;;;;17.34;62.77;102063.84;5011522;28;20471;-76
2022/07/27 07:03:28;;;;;;;6.18;1.10;;;;;;;17.54;62.20;102058.56;5011841;28;20078;-77
2022/07/27 07:05:53;;;;;;;2.63;0.80;;;;;;;17.73;60.92;102055.13;5012686;28;20034;-77
2022/07/27 07:08:20;;;;;;;10.55;0.90;;;;;;;17.93;59.31;102066.19;5012371;28;20026;-76
2022/07/27 07:10:46;;;;;;;5.55;1.23;;;;;;;17.99;59.37;102059.91;5012057;28;20116;-75
2022/07/27 07:13:12;;;;;;;12.93;1.55;;;;;;;18.24;59.29;102064.00;5012445;28;20118;-82
2022/07/27 07:15:39;;;;;;;6.38;1.25;;;;;;;18.84;57.77;102063.19;5011773;28;20037;-75
2022/07/27 07:18:05;;;;;;;5.15;1.17;;;;;;;19.60;55.98;102058.38;5011863;28;20053;-76
2022/07/27 07:20:31;;;;;;;4.10;1.05;;;;;;;21.58;49.47;102071.25;5011576;28;20022;-76
2022/07/27 07:22:57;;;;;;;4.15;0.98;;;;;;;22.88;45.00;102065.47;5011671;28;20095;-76
2022/07/27 07:25:23;;;;;;;3.50;1.05;;;;;;;24.46;42.37;102081.22;5011751;28;20580;-77
2022/07/27 07:27:48;;;;;;;4.07;0.90;;;;;;;25.62;39.48;102076.13;5011977;28;20026;-76
2022/07/27 07:30:14;;;;;;;5.43;1.00;;;;;;;26.44;37.49;102076.41;5011347;28;20030;-77
2022/07/27 07:32:39;;;;;;;4.93;1.10;;;;;;;26.63;36.00;102082.44;5011448;28;20037;-77
2022/07/27 07:35:05;;;;;;;8.30;1.10;;;;;;;25.32;38.19;102087.50;5011563;28;20025;-77
2022/07/27 07:37:31;;;;;;;3.30;1.20;;;;;;;24.27;39.98;102084.13;5011547;28;20485;-77
2022/07/27 07:39:56;;;;;;;5.63;1.02;;;;;;;23.32;41.08;102082.50;5011280;28;20060;-77
2022/07/27 07:42:22;;;;;;;4.45;0.85;;;;;;;22.32;43.28;102088.59;5011475;28;20113;-77
2022/07/27 07:44:47;;;;;;;6.18;1.00;;;;;;;21.62;45.95;102099.91;5011448;28;20033;-76
2022/07/27 07:47:12;;;;;;;2.25;0.80;;;;;;;20.96;48.14;102101.22;5012005;28;20026;-76
2022/07/27 07:49:38;;;;;;;11.07;1.20;;;;;;;20.61;47.53;102093.41;5011954;28;20060;-77
2022/07/27 07:52:03;;;;;;;5.00;1.20;;;;;;;20.56;49.59;102087.75;5011310;28;20054;-75
2022/07/27 07:54:29;;;;;;;4.85;1.02;;;;;;;21.55;48.24;102088.97;5010905;28;20025;-77
2022/07/27 07:56:54;;;;;;;3.38;0.88;;;;;;;22.83;44.64;102090.03;5011502;28;20157;-75
2022/07/27 07:59:19;;;;;;;8.48;1.58;;;;;;;23.39;42.60;102088.75;5010778;28;20026;-76
2022/07/27 08:01:45;;;;;;;7.47;1.10;;;;;;;23.00;42.27;102079.25;5010950;28;20040;-78
2022/07/27 08:04:10;;;;;;;6.97;0.98;;;;;;;22.77;42.75;102089.03;5011142;28;20496;-77
2022/07/27 08:06:37;;;;;;;6.07;1.13;;;;;;;22.19;43.93;102083.28;5011114;28;20034;-77
2022/07/27 08:09:03;;;;;;;2.45;0.80;;;;;;;22.31;43.77;102093.25;5011416;28;20026;-78
2022/07/27 08:11:28;;;;;;;3.45;1.02;;;;;;;23.31;43.03;102094.59;5009487;28;20445;-77
2022/07/27 08:13:54;;;;;;;5.25;1.00;;;;;;;24.75;39.52;102090.34;5009385;28;20080;-77
2022/07/27 08:16:19;;;;;;;4.03;1.00;;;;;;;25.67;37.92;102099.34;5009887;28;20105;-76
2022/07/27 08:18:44;;;;;;;3.80;0.90;;;;;;;26.96;34.69;102102.63;5010381;28;20112;-76
2022/07/27 08:21:10;;;;;;;4.07;1.00;;;;;;;27.93;31.70;102103.44;5010590;28;20029;-76
2022/07/27 08:23:36;;;;;;;2.53;0.82;;;;;;;28.52;31.57;102094.03;5011028;28;20113;-78
2022/07/27 08:26:02;;;;;;;1.67;0.80;;;;;;;28.41;30.35;102096.75;5009921;28;20025;-76
2022/07/27 08:28:27;;;;;;;2.92;0.88;;;;;;;28.61;30.54;102101.53;5010740;28;20461;-77
2022/07/27 08:30:53;;;;;;;2.05;0.57;;;;;;;29.19;29.50;102106.91;5012451;28;20079;-77
2022/07/27 08:33:18;;;;;;;3.67;1.15;;;;;;;29.22;29.50;102097.19;5017394;28;20050;-77
2022/07/27 08:35:44;;;;;;;9.30;1.13;;;;;;;27.76;31.34;102098.88;5015006;28;20113;-76
2022/07/27 08:38:10;;;;;;;7.57;1.40;;;;;;;26.24;33.30;102119.22;5010550;28;20030;-76
2022/07/27 08:40:36;;;;;;;3.15;0.90;;;;;;;26.66;33.20;102115.06;5010921;28;20033;-77
2022/07/27 08:43:02;;;;;;;4.53;1.00;;;;;;;27.73;31.52;102113.25;5012268;28;20030;-77
2022/07/27 08:45:27;;;;;;;4.70;0.88;;;;;;;28.05;30.32;102106.84;5011444;28;20397;-76
2022/07/27 08:47:53;;;;;;;4.35;0.95;;;;;;;28.24;30.08;102105.25;5010371;28;20033;-77
2022/07/27 08:50:22;;;;;;;4.18;0.90;;;;;;;28.69;29.35;102108.47;5010471;28;20042;-78
2022/07/27 08:53:09;;;;;;;6.30;1.20;;;;;;;30.38;27.07;102106.38;5010298;28;20037;-76
2022/07/27 08:55:37;;;;;;;2.13;0.68;;;;;;;30.37;27.43;102110.28;5010023;28;20474;-76
2022/07/27 08:58:03;;;;;;;5.15;0.73;;;;;;;31.12;24.88;102114.00;5010107;28;20026;-77
2022/07/27 09:00:29;;;;;;;1.92;0.75;;;;;;;30.16;26.42;102112.28;5009980;28;20105;-77
2022/07/27 09:02:55;;;;;;;2.07;0.90;;;;;;;28.77;29.08;102112.66;5011063;28;20061;-77
2022/07/27 09:05:21;;;;;;;3.43;0.83;;;;;;;28.04;29.16;102121.75;5010735;28;20378;-77
2022/07/27 09:07:47;;;;;;;4.13;0.70;;;;;;;26.78;31.09;102101.94;5010000;28;20393;-76
2022/07/27 09:10:31;;;;;;;8.00;1.23;;;;;;;26.04;31.86;102114.28;5011053;28;20032;-76
2022/07/27 09:12:56;;;;;;;2.65;1.00;;;;;;;26.27;31.77;102106.81;5010928;28;20037;-77
2022/07/27 09:15:22;;;;;;;5.05;1.10;;;;;;;25.85;33.55;102099.09;5010764;28;20022;-76
2022/07/27 09:17:47;;;;;;;5.70;1.15;;;;;;;25.60;33.96;102092.09;5010564;28;20430;-76
2022/07/27 09:20:17;;;;;;;4.88;1.10;;;;;;;25.78;34.73;102092.91;5010616;28;20026;-77
2022/07/27 09:22:51;;;;;;;7.45;0.98;;;;;;;26.26;33.28;102106.00;5009436;28;20034;-77
2022/07/27 09:25:18;;;;;;;11.57;1.42;;;;;;;26.14;32.76;102108.03;5010913;28;20462;-77
2022/07/27 09:27:48;;;;;;;4.60;1.17;;;;;;;25.62;34.23;102111.97;5013496;28;20029;-77
2022/07/27 09:30:17;;;;;;;7.93;0.95;;;;;;;25.53;35.05;102107.97;5014858;28;20270;-77
2022/07/27 09:32:57;;;;;;;5.38;1.27;;;;;;;25.23;35.78;102113.00;5012713;28;20132;-77
2022/07/27 09:35:32;;;;;;;9.00;1.40;;;;;;;24.64;37.20;102105.81;5013550;28;20374;-77
2022/07/27 09:38:21;;;;;;;5.72;1.42;;;;;;;24.02;38.63;102105.63;5014583;28;20021;-77
2022/07/27 09:41:07;;;;;;;7.43;1.10;;;;;;;23.68;39.44;102108.13;5014629;28;20022;-77
2022/07/27 09:43:50;;;;;;;13.32;1.70;;;;;;;24.87;37.52;102109.56;5013908;28;20053;-78
2022/07/27 09:46:28;;;;;;;3.92;1.20;;;;;;;25.79;36.79;102111.13;5013962;28;20026;-77
2022/07/27 09:48:54;;;;;;;6.40;0.98;;;;;;;26.95;34.23;102106.50;5013729;28;20026;-76
2022/07/27 09:51:19;;;;;;;5.18;1.45;;;;;;;27.29;32.32;102101.59;5016381;28;20129;-77
2022/07/27 09:53:44;;;;;;;3.72;0.88;;;;;;;28.34;31.28;102107.22;5020175;28;20056;-78
2022/07/27 09:56:12;;;;;;;7.88;1.00;;;;;;;28.37;30.25;102105.84;5017292;28;20145;-75
2022/07/27 09:58:52;;;;;;;4.57;0.82;;;;;;;27.50;31.63;102105.34;5014625;28;20048;-77
2022/07/27 10:01:23;;;;;;;3.78;1.00;;;;;;;26.95;33.17;102101.81;5013672;28;20093;-78
2022/07/27 10:03:51;;;;;;;4.05;1.10;;;;;;;26.45;34.93;102102.91;5014454;28;20474;-77
2022/07/27 10:06:17;;;;;;;4.18;1.10;;;;;;;26.28;34.04;102103.81;5013575;28;20048;-79
2022/07/27 10:08:44;;;;;;;4.47;0.98;;;;;;;26.53;33.37;102104.41;5014711;28;20026;-78
2022/07/27 10:11:11;;;;;;;7.97;1.08;;;;;;;26.10;34.79;102097.78;5014329;28;20097;-77
2022/07/27 10:13:37;;;;;;;5.68;1.10;;;;;;;25.96;35.26;102092.66;5014110;28;20058;-76
2022/07/27 10:16:04;;;;;;;5.60;1.02;;;;;;;26.23;34.77;102100.16;5014174;28;20148;-77
2022/07/27 10:18:48;;;;;;;8.73;1.23;;;;;;;26.00;34.71;102102.06;5012231;28;20104;-77
2022/07/27 10:21:13;;;;;;;2.45;0.77;;;;;;;26.11;33.80;102092.00;5012515;28;20038;-77
2022/07/27 10:23:39;;;;;;;6.97;1.05;;;;;;;25.76;34.16;102093.16;5012489;28;20092;-75
2022/07/27 10:26:15;;;;;;;3.92;1.08;;;;;;;26.66;33.21;102093.78;5012697;28;20017;-76
2022/07/27 10:29:17;;;;;;;3.47;0.95;;;;;;;27.23;32.91;102097.97;5013934;28;20564;-77
2022/07/27 10:31:56;;;;;;;5.13;1.10;;;;;;;27.57;32.07;102098.50;5000059;28;20045;-76
2022/07/27 10:34:38;;;;;;;3.72;0.95;;;;;;;27.87;31.96;102096.22;5011988;28;20053;-77
2022/07/27 10:37:30;;;;;;;5.70;1.30;;;;;;;27.67;31.45;102091.34;5013060;28;20105;-75
2022/07/27 10:43:05;;;;;;;3.63;0.95;;;;;;;28.62;29.77;102092.13;5012650;28;20100;-76
2022/07/27 10:45:39;;;;;;;3.47;1.10;;;;;;;28.66;29.36;102096.00;5013080;28;20026;-77
2022/07/27 10:48:04;;;;;;;7.63;1.08;;;;;;;29.62;29.23;102098.25;5012119;28;20026;-75
2022/07/27 10:50:30;;;;;;;3.60;1.07;;;;;;;30.40;27.43;102098.59;5013717;28;20363;-76
2022/07/27 10:52:57;;;;;;;3.88;0.82;;;;;;;30.35;27.47;102095.84;5011548;28;20033;-77
2022/07/27 10:55:28;;;;;;;4.18;0.63;;;;;;;30.12;27.30;102100.09;5012842;28;20030;-77
2022/07/27 10:57:54;;;;;;;7.57;1.30;;;;;;;29.32;27.82;102097.19;5011287;28;20047;-76
2022/07/27 11:00:20;;;;;;;3.83;0.90;;;;;;;27.76;30.06;102090.59;5012839;28;20025;-76
2022/07/27 11:02:45;;;;;;;1.63;0.82;;;;;;;26.60;32.79;102105.88;5012809;28;20029;-76
2022/07/27 11:05:10;;;;;;;5.57;0.85;;;;;;;26.13;33.60;102105.56;5011808;28;20049;-76
2022/07/27 11:07:37;;;;;;;6.82;1.27;;;;;;;25.82;33.99;102099.56;5013017;28;20088;-75
2022/07/27 11:10:03;;;;;;;2.67;1.13;;;;;;;25.68;33.67;102096.34;5013200;28;20425;-76
2022/07/27 11:12:28;;;;;;;7.07;1.00;;;;;;;25.44;35.21;102087.44;5012210;28;20026;-76
2022/07/27 11:14:56;;;;;;;8.57;1.17;;;;;;;26.38;33.84;102099.50;5011659;28;20033;-76
2022/07/27 11:17:23;;;;;;;4.78;1.17;;;;;;;27.46;31.99;102098.66;5012264;28;20029;-76
2022/07/27 11:19:52;;;;;;;;;;;;;;;27.85;31.60;102101.19;5013314;28;20068;-77
2022/07/27 11:22:30;;;;;;;3.33;1.00;;;;;;;28.35;30.74;102092.28;4994805;28;19910;-76
2022/07/27 11:24:55;;;;;;;2.92;1.10;;;;;;;28.97;30.21;102101.59;5012224;28;20032;-77
2022/07/27 11:27:20;;;;;;;7.75;1.25;;;;;;;29.36;28.28;102101.09;5012218;28;20389;-77
2022/07/27 11:29:46;;;;;;;2.33;0.90;;;;;;;29.31;28.75;102095.53;5012555;28;20089;-76